Time;durP1;ratioP1;P1;durP2;ratioP2;P2;SDS_P1;SDS_P2;PMS_P1;PMS_P2;Temp;Humidity;BMP_temperature;BMP_pressure;BME280_temperature;BME280_humidity;BME280_pressure;Samples;Min_cycle;Max_cycle;Signal;HPM_P1;HPM_P2
2024/04/20 00:00:27;;;;;;;8.90;2.22;;;7.80;99.90;;;;;;5368630;26;20452;-69
2024/04/20 00:02:54;;;;;;;16.10;2.20;;;7.80;99.90;;;;;;5387992;26;20018;-69
2024/04/20 00:05:21;;;;;;;9.75;1.58;;;7.60;99.90;;;;;;5371846;26;20020;-69
2024/04/20 00:07:48;;;;;;;6.97;1.40;;;7.60;99.90;;;;;;5374870;26;20560;-69
2024/04/20 00:10:17;;;;;;;8.18;2.47;;;7.50;99.90;;;;;;5388252;26;20073;-68
2024/04/20 00:12:44;;;;;;;9.25;3.50;;;7.50;99.90;;;;;;5385640;26;20036;-69
2024/04/20 00:15:11;;;;;;;7.18;1.70;;;7.50;99.90;;;;;;5376272;26;20007;-69
2024/04/20 00:17:38;;;;;;;11.00;2.22;;;7.40;99.90;;;;;;5392815;26;19996;-69
2024/04/20 00:20:05;;;;;;;8.40;2.20;;;7.40;99.90;;;;;;5392451;26;20236;-68
2024/04/20 00:22:32;;;;;;;3.95;1.23;;;7.30;99.90;;;;;;5377464;26;20051;-69
2024/04/20 00:24:59;;;;;;;7.43;1.48;;;7.30;99.90;;;;;;5381356;26;20008;-69
2024/04/20 00:27:27;;;;;;;7.50;1.65;;;7.30;99.90;;;;;;5368135;26;20089;-70
2024/04/20 00:29:54;;;;;;;7.00;1.65;;;7.20;99.90;;;;;;5376994;26;20016;-69
2024/04/20 00:32:21;;;;;;;7.95;1.23;;;7.10;99.90;;;;;;5384818;26;20000;-69
2024/04/20 00:34:48;;;;;;;12.18;1.52;;;7.10;99.90;;;;;;5395547;26;20332;-69
2024/04/20 00:37:14;;;;;;;8.13;1.73;;;7.10;99.90;;;;;;5382531;26;20297;-68
2024/04/20 00:39:41;;;;;;;7.57;1.65;;;7.10;99.90;;;;;;5377033;26;20076;-68
2024/04/20 00:42:08;;;;;;;10.35;1.85;;;7.10;99.90;;;;;;5383517;26;20004;-69
2024/04/20 00:44:36;;;;;;;13.50;1.90;;;7.00;99.90;;;;;;5375628;26;20015;-69
2024/04/20 00:47:04;;;;;;;13.18;2.15;;;7.00;99.90;;;;;;5393769;26;19999;-68
2024/04/20 00:49:31;;;;;;;11.57;2.28;;;7.00;99.90;;;;;;5372895;26;20082;-68
2024/04/20 00:51:58;;;;;;;4.85;1.50;;;6.90;99.90;;;;;;5374160;26;20013;-69
2024/04/20 00:54:26;;;;;;;11.95;2.63;;;6.90;99.90;;;;;;5379080;26;20085;-68
2024/04/20 00:56:54;;;;;;;9.32;2.33;;;6.90;99.90;;;;;;5377314;26;20390;-69
2024/04/20 00:59:21;;;;;;;13.38;1.85;;;6.80;99.90;;;;;;5396186;26;20015;-69
2024/04/20 01:01:49;;;;;;;8.05;1.95;;;6.80;99.90;;;;;;5382665;26;20020;-69
2024/04/20 01:04:16;;;;;;;10.50;2.63;;;6.80;99.90;;;;;;5370512;26;20008;-70
2024/04/20 01:06:43;;;;;;;12.45;2.67;;;6.80;99.90;;;;;;5375619;26;20450;-69
2024/04/20 01:09:10;;;;;;;14.73;2.00;;;6.80;99.90;;;;;;5389753;26;20036;-70
2024/04/20 01:11:37;;;;;;;8.25;1.77;;;6.70;99.90;;;;;;5377731;26;20487;-69
2024/04/20 01:14:04;;;;;;;10.70;1.67;;;6.70;99.90;;;;;;5385154;26;20370;-69
2024/04/20 01:16:31;;;;;;;19.10;3.17;;;6.70;99.90;;;;;;5381868;26;20485;-69
2024/04/20 01:18:58;;;;;;;10.05;1.73;;;6.60;99.90;;;;;;5383571;26;20513;-69
2024/04/20 01:21:25;;;;;;;7.22;1.85;;;6.60;99.90;;;;;;5385509;26;20008;-69
2024/04/20 01:23:54;;;;;;;12.00;1.55;;;6.60;99.90;;;;;;5383687;26;20000;-69
2024/04/20 01:26:21;;;;;;;12.40;1.77;;;6.60;99.90;;;;;;5395992;26;20390;-69
2024/04/20 01:28:48;;;;;;;13.98;2.75;;;6.50;99.90;;;;;;5389528;26;20419;-69
2024/04/20 01:31:14;;;;;;;7.85;1.73;;;6.50;99.90;;;;;;5398761;26;20065;-70
2024/04/20 01:33:41;;;;;;;18.23;2.28;;;6.50;99.90;;;;;;5385604;26;20081;-68
2024/04/20 01:36:10;;;;;;;9.70;2.08;;;6.40;99.90;;;;;;5382518;26;20404;-70
2024/04/20 01:38:37;;;;;;;7.53;1.48;;;6.40;99.90;;;;;;5373617;26;20440;-70
2024/04/20 01:41:04;;;;;;;8.45;1.85;;;6.30;99.90;;;;;;5368035;26;20515;-70
2024/04/20 01:43:31;;;;;;;9.00;2.47;;;6.30;99.90;;;;;;5390299;26;20090;-70
2024/04/20 01:45:57;;;;;;;11.15;2.45;;;6.30;99.90;;;;;;5378436;26;20015;-70
2024/04/20 01:48:25;;;;;;;23.05;2.38;;;6.20;99.90;;;;;;5386691;26;19999;-71
2024/04/20 01:50:54;;;;;;;16.10;2.85;;;6.20;99.90;;;;;;5364149;26;20014;-70
2024/04/20 01:53:21;;;;;;;17.60;2.03;;;6.20;99.90;;;;;;5383928;26;20547;-70
2024/04/20 01:55:48;;;;;;;9.68;1.67;;;6.20;99.90;;;;;;5372061;26;20003;-69
2024/04/20 01:58:15;;;;;;;12.45;2.47;;;6.20;99.90;;;;;;5381441;26;20034;-69
2024/04/20 02:00:42;;;;;;;12.25;1.67;;;6.20;99.90;;;;;;5378573;26;20074;-69
2024/04/20 02:03:11;;;;;;;10.00;2.25;;;6.10;99.90;;;;;;5393316;26;20008;-69
2024/04/20 02:05:39;;;;;;;9.73;1.77;;;6.10;99.90;;;;;;5391879;26;20024;-68
2024/04/20 02:08:06;;;;;;;10.25;1.73;;;6.10;99.90;;;;;;5393552;26;20010;-69
2024/04/20 02:10:33;;;;;;;12.75;2.05;;;6.10;99.90;;;;;;5392160;26;19999;-70
2024/04/20 02:13:00;;;;;;;9.02;1.23;;;6.10;99.90;;;;;;5389030;26;19999;-69
2024/04/20 02:15:27;;;;;;;12.10;3.05;;;6.10;99.90;;;;;;5384685;26;20696;-69
2024/04/20 02:17:54;;;;;;;14.98;1.65;;;6.00;99.90;;;;;;5397557;26;20001;-69
2024/04/20 02:20:21;;;;;;;12.02;1.65;;;6.00;99.90;;;;;;5393049;26;20237;-69
2024/04/20 02:22:49;;;;;;;11.63;3.22;;;6.00;99.90;;;;;;5397448;26;20030;-69
2024/04/20 02:25:16;;;;;;;8.32;2.42;;;6.00;99.90;;;;;;5330734;26;20574;-70
2024/04/20 02:27:43;;;;;;;5.55;2.35;;;6.00;99.90;;;;;;5396884;26;20015;-70
2024/04/20 02:30:10;;;;;;;17.52;2.47;;;5.90;99.90;;;;;;5390484;26;20076;-70
2024/04/20 02:33:15;;;;;;;11.70;2.65;;;5.90;99.90;;;;;;5379927;26;19999;-70
2024/04/20 02:35:42;;;;;;;11.18;3.25;;;5.90;99.90;;;;;;5385924;26;20476;-69
2024/04/20 02:38:09;;;;;;;8.18;1.95;;;5.80;99.90;;;;;;5375015;26;20503;-70
2024/04/20 02:40:37;;;;;;;15.25;2.63;;;5.80;99.90;;;;;;5388820;26;20000;-70
2024/04/20 02:43:04;;;;;;;8.00;2.50;;;5.80;99.90;;;;;;5397214;26;20490;-70
2024/04/20 02:45:31;;;;;;;12.95;3.08;;;5.80;99.90;;;;;;5377049;26;20350;-70
2024/04/20 02:47:58;;;;;;;10.32;2.75;;;5.80;99.90;;;;;;5381538;26;20014;-69
2024/04/20 02:50:25;;;;;;;26.60;4.45;;;5.80;99.90;;;;;;5378365;26;20008;-69
2024/04/20 02:52:52;;;;;;;18.90;3.03;;;5.70;99.90;;;;;;5382072;26;20063;-70
2024/04/20 02:55:19;;;;;;;17.58;2.88;;;5.80;99.90;;;;;;5387679;26;20014;-69
2024/04/20 02:57:46;;;;;;;12.32;3.83;;;5.80;99.90;;;;;;5379119;26;20319;-70
2024/04/20 03:00:13;;;;;;;6.88;1.67;;;5.70;99.90;;;;;;5383451;26;20361;-68
2024/04/20 03:02:40;;;;;;;8.38;1.98;;;5.70;99.90;;;;;;5397243;26;20012;-69
2024/04/20 03:05:07;;;;;;;14.85;3.40;;;5.80;99.90;;;;;;5378101;26;20022;-69
2024/04/20 03:07:34;;;;;;;13.23;4.60;;;5.70;99.90;;;;;;5391773;26;20541;-70
2024/04/20 03:10:01;;;;;;;7.63;1.70;;;5.70;99.90;;;;;;5391646;26;20015;-70
2024/04/20 03:12:28;;;;;;;11.55;3.08;;;5.70;99.90;;;;;;5378371;26;20119;-69
2024/04/20 03:14:55;;;;;;;11.48;1.83;;;5.70;99.90;;;;;;5394128;26;20004;-69
2024/04/20 03:17:22;;;;;;;5.85;2.00;;;5.70;99.90;;;;;;5393398;26;20045;-68
2024/04/20 03:19:50;;;;;;;12.40;1.83;;;5.70;99.90;;;;;;5399304;26;20152;-69
2024/04/20 03:22:17;;;;;;;11.25;1.90;;;5.80;99.90;;;;;;5384779;26;20004;-68
2024/04/20 03:24:44;;;;;;;6.40;1.42;;;5.80;99.90;;;;;;5382332;26;20664;-69
2024/04/20 03:27:11;;;;;;;11.73;2.15;;;5.70;99.90;;;;;;5389762;26;20244;-69
2024/04/20 03:29:38;;;;;;;13.65;2.08;;;5.70;99.90;;;;;;5394048;26;20023;-68
2024/04/20 03:32:05;;;;;;;12.52;1.48;;;5.80;99.90;;;;;;5383126;26;20000;-69
2024/04/20 03:34:32;;;;;;;7.88;1.63;;;5.70;99.90;;;;;;5392816;26;20000;-69
2024/04/20 03:36:59;;;;;;;13.63;2.03;;;5.70;99.90;;;;;;5376056;26;20091;-69
2024/04/20 03:39:27;;;;;;;6.18;1.48;;;5.70;99.90;;;;;;5372583;26;20089;-69
2024/04/20 03:41:54;;;;;;;14.57;2.38;;;5.70;99.90;;;;;;5384248;26;20023;-69
2024/04/20 03:44:20;;;;;;;14.63;2.42;;;5.70;99.90;;;;;;5405294;26;20073;-69
2024/04/20 03:46:47;;;;;;;9.20;2.47;;;5.70;99.90;;;;;;5379501;26;20004;-69
2024/04/20 03:49:14;;;;;;;8.98;2.20;;;5.60;99.90;;;;;;5376064;26;20517;-69
2024/04/20 03:51:41;;;;;;;10.77;2.00;;;5.60;99.90;;;;;;5374909;26;20011;-69
2024/04/20 03:54:08;;;;;;;8.65;1.67;;;5.60;99.90;;;;;;5383983;26;20012;-69
2024/04/20 03:56:35;;;;;;;11.93;1.90;;;5.60;99.90;;;;;;5377194;26;20085;-68
2024/04/20 03:59:03;;;;;;;13.77;2.15;;;5.60;99.90;;;;;;5392000;26;20017;-69
2024/04/20 04:01:30;;;;;;;10.07;2.38;;;5.50;99.90;;;;;;5383554;26;21821;-69
2024/04/20 04:03:57;;;;;;;13.82;2.58;;;5.40;99.90;;;;;;5389501;26;20004;-69
2024/04/20 04:06:24;;;;;;;9.05;2.05;;;5.40;99.90;;;;;;5397123;26;20015;-69
2024/04/20 04:08:51;;;;;;;17.50;2.33;;;5.40;99.90;;;;;;5396351;26;20031;-69
2024/04/20 04:11:18;;;;;;;15.98;2.30;;;5.40;99.90;;;;;;5383589;26;20603;-69
2024/04/20 04:13:45;;;;;;;12.75;1.88;;;5.50;99.90;;;;;;5395963;26;20014;-68
2024/04/20 04:16:12;;;;;;;12.85;2.45;;;5.40;99.90;;;;;;5398814;26;20070;-70
2024/04/20 04:18:39;;;;;;;14.90;2.33;;;5.40;99.90;;;;;;5376275;26;20059;-68
2024/04/20 04:21:10;;;;;;;11.05;2.05;;;5.40;99.90;;;;;;5395879;26;20000;-68
2024/04/20 04:23:37;;;;;;;10.77;1.88;;;5.50;99.90;;;;;;5386825;26;20020;-69
2024/04/20 04:26:05;;;;;;;4.97;1.75;;;5.50;99.90;;;;;;5397183;26;20018;-69
2024/04/20 04:28:32;;;;;;;10.00;1.90;;;5.50;99.90;;;;;;5386185;26;20543;-69
2024/04/20 04:30:59;;;;;;;10.63;3.13;;;5.50;99.90;;;;;;5387566;26;20333;-69
2024/04/20 04:33:26;;;;;;;14.35;3.55;;;5.50;99.90;;;;;;5386329;26;20015;-68
2024/04/20 04:35:57;;;;;;;5.63;1.38;;;5.50;99.90;;;;;;5395177;26;20346;-69
2024/04/20 04:38:25;;;;;;;11.50;1.90;;;5.50;99.90;;;;;;5386755;26;20348;-70
2024/04/20 04:40:53;;;;;;;9.70;3.03;;;5.50;99.90;;;;;;5404843;26;20529;-69
2024/04/20 04:43:20;;;;;;;21.38;2.53;;;5.50;99.90;;;;;;5395421;26;20012;-70
2024/04/20 04:45:47;;;;;;;15.07;2.22;;;5.60;99.90;;;;;;5388456;26;20446;-69
2024/04/20 04:48:17;;;;;;;11.73;3.28;;;5.60;99.90;;;;;;5372569;26;20073;-69
2024/04/20 04:50:47;;;;;;;27.65;4.22;;;5.70;99.90;;;;;;5395029;26;20019;-69
2024/04/20 04:53:14;;;;;;;15.13;3.55;;;5.70;99.90;;;;;;5372392;26;20052;-69
2024/04/20 04:55:41;;;;;;;14.07;2.97;;;5.70;99.90;;;;;;5386753;26;20082;-69
2024/04/20 04:58:08;;;;;;;10.15;2.08;;;5.90;99.90;;;;;;5386558;26;20020;-69
2024/04/20 05:00:36;;;;;;;8.32;1.70;;;5.70;99.90;;;;;;5389283;26;20446;-69
2024/04/20 05:03:03;;;;;;;10.52;2.70;;;5.60;99.90;;;;;;5374916;26;20008;-69
2024/04/20 05:05:31;;;;;;;8.00;1.92;;;5.80;99.90;;;;;;5380757;26;20047;-68
2024/04/20 05:07:58;;;;;;;17.70;3.40;;;5.80;99.90;;;;;;5388667;26;20218;-69
2024/04/20 05:10:27;;;;;;;19.23;2.17;;;5.80;99.90;;;;;;5382904;26;20510;-68
2024/04/20 05:12:54;;;;;;;11.30;2.15;;;5.80;99.90;;;;;;5382880;26;20015;-69
2024/04/20 05:15:21;;;;;;;10.80;2.28;;;5.80;99.90;;;;;;5386004;26;20035;-67
2024/04/20 05:17:48;;;;;;;11.75;1.45;;;5.80;99.90;;;;;;5396932;26;20007;-68
2024/04/20 05:20:15;;;;;;;17.33;3.35;;;5.70;99.90;;;;;;5385954;26;20004;-69
2024/04/20 05:22:47;;;;;;;13.20;2.50;;;5.80;99.90;;;;;;5377787;26;20024;-69
2024/04/20 05:25:14;;;;;;;9.23;2.63;;;5.90;99.90;;;;;;5378631;26;20076;-69
2024/04/20 05:27:41;;;;;;;11.27;2.05;;;5.80;99.90;;;;;;5400399;26;20327;-68
2024/04/20 05:30:08;;;;;;;18.75;2.25;;;5.80;99.90;;;;;;5384463;26;20466;-69
2024/04/20 05:32:35;;;;;;;9.68;2.28;;;5.80;99.90;;;;;;5400408;26;20126;-69
2024/04/20 05:35:03;;;;;;;12.77;2.25;;;5.80;99.90;;;;;;5390798;26;20040;-69
2024/04/20 05:37:30;;;;;;;11.98;2.95;;;5.80;99.90;;;;;;5397576;26;20019;-68
2024/04/20 05:39:57;;;;;;;14.68;2.95;;;5.80;99.90;;;;;;5378057;26;20019;-70
2024/04/20 05:42:29;;;;;;;18.25;1.98;;;5.90;99.90;;;;;;5395253;26;20356;-70
2024/04/20 05:44:56;;;;;;;14.75;2.08;;;5.90;99.90;;;;;;5390756;26;20016;-70
2024/04/20 05:47:23;;;;;;;16.60;2.13;;;5.90;99.90;;;;;;5378024;26;20008;-71
2024/04/20 05:49:58;;;;;;;17.70;2.17;;;5.90;99.90;;;;;;5292022;26;10001094;-69
2024/04/20 05:52:25;;;;;;;13.25;2.17;;;5.90;99.90;;;;;;5393504;26;20210;-70
2024/04/20 05:54:52;;;;;;;10.02;2.17;;;6.00;99.90;;;;;;5392876;26;19996;-71
2024/04/20 05:57:19;;;;;;;12.45;2.13;;;6.00;99.90;;;;;;5373682;26;20061;-70
2024/04/20 05:59:45;;;;;;;14.30;2.42;;;6.00;99.90;;;;;;5395844;26;19999;-69
2024/04/20 06:02:12;;;;;;;5.18;2.20;;;6.00;99.90;;;;;;5373332;26;20000;-69
2024/04/20 06:04:40;;;;;;;19.48;2.65;;;6.10;99.90;;;;;;5358809;26;20695;-68
2024/04/20 06:07:07;;;;;;;11.82;2.30;;;6.10;99.90;;;;;;5382926;26;20068;-68
2024/04/20 06:09:34;;;;;;;12.30;1.90;;;6.20;99.90;;;;;;5382140;26;20007;-69
2024/04/20 06:12:08;;;;;;;9.27;1.83;;;6.20;99.90;;;;;;5383368;26;20019;-69
2024/04/20 06:14:35;;;;;;;9.98;2.33;;;6.20;99.90;;;;;;5381484;26;20045;-68
2024/04/20 06:17:02;;;;;;;13.13;1.95;;;6.20;99.90;;;;;;5388295;26;20015;-69
2024/04/20 06:19:29;;;;;;;12.43;2.03;;;6.20;99.90;;;;;;5384120;26;20353;-69
2024/04/20 06:21:56;;;;;;;9.77;1.92;;;6.20;99.90;;;;;;5376495;26;20040;-68
2024/04/20 06:24:23;;;;;;;14.75;2.15;;;6.20;99.90;;;;;;5391011;26;20004;-69
2024/04/20 06:26:50;;;;;;;10.80;1.63;;;6.20;99.90;;;;;;5371454;26;20038;-69
2024/04/20 06:29:20;;;;;;;17.25;2.58;;;6.10;99.90;;;;;;5386284;26;20338;-70
2024/04/20 06:31:47;;;;;;;16.15;2.15;;;6.10;99.90;;;;;;5374031;26;20505;-70
2024/04/20 06:34:14;;;;;;;17.52;2.80;;;6.20;99.90;;;;;;5386456;26;19996;-69
2024/04/20 06:36:41;;;;;;;11.32;2.47;;;6.20;99.90;;;;;;5393259;26;20305;-69
2024/04/20 06:39:08;;;;;;;11.98;1.80;;;6.20;99.90;;;;;;5395576;26;20000;-70
2024/04/20 06:41:35;;;;;;;17.10;2.75;;;6.30;99.90;;;;;;5376864;26;20148;-68
2024/04/20 06:44:02;;;;;;;11.02;1.88;;;6.30;99.90;;;;;;5373624;26;20015;-67
2024/04/20 06:46:30;;;;;;;16.00;2.75;;;6.30;99.90;;;;;;5368540;26;20016;-68
2024/04/20 06:49:01;;;;;;;13.65;2.70;;;6.40;99.90;;;;;;5375734;26;20451;-70
2024/04/20 06:51:29;;;;;;;13.25;2.67;;;6.40;99.90;;;;;;5377070;26;20050;-68
2024/04/20 06:53:56;;;;;;;9.57;1.70;;;6.50;99.90;;;;;;5389668;26;20017;-69
2024/04/20 06:56:23;;;;;;;12.57;1.90;;;6.70;99.90;;;;;;5379357;26;19999;-68
2024/04/20 06:58:50;;;;;;;12.35;2.53;;;6.70;99.90;;;;;;5389784;26;20007;-69
2024/04/20 07:01:17;;;;;;;10.60;2.22;;;6.70;99.90;;;;;;5385456;26;20479;-68
2024/04/20 07:03:44;;;;;;;11.50;2.75;;;6.70;99.90;;;;;;5378616;26;20004;-68
2024/04/20 07:06:11;;;;;;;12.80;3.10;;;6.80;99.90;;;;;;5391437;26;20023;-68
2024/04/20 07:08:41;;;;;;;12.82;2.10;;;6.80;99.90;;;;;;5381903;26;20337;-68
2024/04/20 07:11:08;;;;;;;13.32;2.75;;;6.80;99.90;;;;;;5387531;26;20502;-69
2024/04/20 07:13:39;;;;;;;13.30;2.58;;;6.80;99.90;;;;;;5377473;26;20033;-68
2024/04/20 07:16:06;;;;;;;10.50;2.78;;;6.80;99.90;;;;;;5382444;26;20000;-68
2024/04/20 07:18:34;;;;;;;12.30;2.50;;;6.70;99.90;;;;;;5394765;26;20008;-68
2024/04/20 07:21:04;;;;;;;12.85;2.83;;;6.70;99.90;;;;;;5392802;26;20010;-69
2024/04/20 07:23:31;;;;;;;16.67;2.45;;;6.80;99.90;;;;;;5380503;26;20213;-68
2024/04/20 07:25:59;;;;;;;17.98;3.55;;;6.80;99.90;;;;;;5376156;26;20004;-70
2024/04/20 07:28:26;;;;;;;10.15;2.03;;;6.80;99.90;;;;;;5388076;26;20015;-69
2024/04/20 07:30:53;;;;;;;19.20;4.90;;;6.80;99.90;;;;;;5386220;26;20460;-70
2024/04/20 07:33:21;;;;;;;6.88;1.92;;;6.90;99.90;;;;;;5386308;26;20007;-69
2024/04/20 07:35:48;;;;;;;18.95;2.70;;;7.00;99.90;;;;;;5372053;26;20088;-70
2024/04/20 07:38:15;;;;;;;14.82;3.03;;;7.00;99.90;;;;;;5370926;26;20011;-72
2024/04/20 07:40:42;;;;;;;10.80;2.60;;;7.10;99.90;;;;;;5392132;26;20073;-71
2024/04/20 07:43:09;;;;;;;11.52;1.95;;;7.20;99.90;;;;;;5387107;26;20011;-73
2024/04/20 07:45:36;;;;;;;11.65;2.03;;;7.30;99.90;;;;;;5370550;26;20000;-72
2024/04/20 07:48:04;;;;;;;16.83;2.75;;;7.40;99.90;;;;;;5364413;26;20012;-71
2024/04/20 07:50:31;;;;;;;14.00;2.67;;;7.50;99.90;;;;;;5374482;26;20047;-71
2024/04/20 07:52:58;;;;;;;10.98;2.30;;;7.50;99.90;;;;;;5371590;26;20004;-71
2024/04/20 07:55:25;;;;;;;11.15;2.67;;;7.50;99.90;;;;;;5383684;26;20003;-71
2024/04/20 07:57:52;;;;;;;13.40;2.60;;;7.60;99.90;;;;;;5388111;26;20007;-71
2024/04/20 08:00:19;;;;;;;9.48;1.80;;;7.70;99.90;;;;;;5388785;26;20004;-72
2024/04/20 08:02:46;;;;;;;10.77;2.10;;;7.60;99.90;;;;;;5394224;26;20007;-71
2024/04/20 08:05:13;;;;;;;10.00;2.00;;;7.70;99.90;;;;;;5383387;26;20000;-69
2024/04/20 08:07:40;;;;;;;12.10;2.33;;;7.80;99.90;;;;;;5381468;26;20319;-69
2024/04/20 08:10:09;;;;;;;10.35;1.98;;;7.90;99.90;;;;;;5374596;26;20069;-70
2024/04/20 08:12:36;;;;;;;12.20;3.00;;;8.10;99.90;;;;;;5383622;26;20035;-70
2024/04/20 08:15:03;;;;;;;23.30;2.92;;;8.20;99.90;;;;;;5380938;26;20032;-69
2024/04/20 08:17:30;;;;;;;11.63;2.90;;;8.40;99.90;;;;;;5381117;26;20003;-69
2024/04/20 08:19:57;;;;;;;11.40;2.00;;;8.40;99.90;;;;;;5389157;26;20858;-69
2024/04/20 08:22:24;;;;;;;13.60;2.88;;;8.50;99.90;;;;;;5411494;26;20011;-70
2024/04/20 08:24:51;;;;;;;15.02;2.97;;;8.60;99.90;;;;;;5384642;26;20005;-70
2024/04/20 08:27:20;;;;;;;14.45;1.95;;;8.60;99.90;;;;;;5390275;26;20018;-71
2024/04/20 08:29:47;;;;;;;18.02;2.42;;;8.70;99.90;;;;;;5387866;26;20447;-70
2024/04/20 08:32:14;;;;;;;13.52;1.77;;;8.80;99.90;;;;;;5389720;26;20528;-71
2024/04/20 08:34:41;;;;;;;10.85;1.83;;;8.90;99.90;;;;;;5377163;26;20463;-70
2024/04/20 08:37:08;;;;;;;11.77;1.73;;;8.90;99.90;;;;;;5372095;26;20074;-70
2024/04/20 08:39:35;;;;;;;13.27;2.38;;;8.90;99.90;;;;;;5366346;26;20589;-70
2024/04/20 08:42:03;;;;;;;14.13;2.08;;;8.90;99.90;;;;;;5384026;26;20015;-68
2024/04/20 08:44:30;;;;;;;11.95;2.20;;;9.00;99.90;;;;;;5386662;26;20006;-69
2024/04/20 08:46:58;;;;;;;10.75;2.15;;;8.90;99.90;;;;;;5368912;26;20009;-69
2024/04/20 08:49:25;;;;;;;11.98;1.75;;;8.90;99.90;;;;;;5385351;26;20062;-68
2024/04/20 08:51:53;;;;;;;12.65;2.67;;;8.90;99.90;;;;;;5370271;26;20261;-69
2024/04/20 08:54:21;;;;;;;11.73;1.90;;;8.90;99.90;;;;;;5379146;26;20008;-69
2024/04/20 08:56:48;;;;;;;7.75;1.98;;;8.90;99.90;;;;;;5391023;26;20039;-69
2024/04/20 08:59:15;;;;;;;9.25;1.90;;;9.00;99.90;;;;;;5394803;26;20023;-70
2024/04/20 09:01:42;;;;;;;9.93;2.47;;;9.10;99.90;;;;;;5397967;26;20078;-70
2024/04/20 09:04:09;;;;;;;10.82;1.80;;;9.20;99.90;;;;;;5389122;26;20081;-68
2024/04/20 09:06:36;;;;;;;7.68;2.20;;;9.40;99.90;;;;;;5398671;26;20527;-69
2024/04/20 09:09:03;;;;;;;7.47;1.90;;;9.40;99.90;;;;;;5361537;26;20024;-69
2024/04/20 09:11:30;;;;;;;8.35;2.03;;;9.50;99.90;;;;;;5388286;26;20011;-69
2024/04/20 09:14:02;;;;;;;12.68;2.05;;;9.60;99.90;;;;;;5382837;26;20004;-71
2024/04/20 09:16:29;;;;;;;11.85;1.90;;;9.70;99.90;;;;;;5386646;26;20080;-70
2024/04/20 09:19:00;;;;;;;8.30;1.73;;;9.70;99.90;;;;;;5388660;26;20012;-72
2024/04/20 09:21:27;;;;;;;10.27;1.60;;;9.70;99.90;;;;;;5368066;26;20000;-72
2024/04/20 09:24:07;;;;;;;14.52;2.90;;;9.80;99.90;;;;;;5379642;26;20012;-71
2024/04/20 09:26:34;;;;;;;9.80;3.28;;;9.70;99.90;;;;;;5386395;26;20011;-71
2024/04/20 09:29:02;;;;;;;6.50;1.65;;;9.80;99.90;;;;;;5380993;26;20005;-72
2024/04/20 09:31:32;;;;;;;13.85;1.52;;;9.90;99.90;;;;;;5383561;26;20007;-70
2024/04/20 09:33:59;;;;;;;15.80;2.13;;;9.90;99.90;;;;;;5398263;26;20083;-72
2024/04/20 09:36:27;;;;;;;14.48;1.85;;;9.90;99.90;;;;;;5370716;26;20381;-71
2024/04/20 09:38:53;;;;;;;9.20;2.17;;;10.00;99.90;;;;;;5386774;26;20389;-70
2024/04/20 09:41:20;;;;;;;3.63;1.23;;;10.10;99.90;;;;;;5391833;26;20078;-70
2024/04/20 09:43:50;;;;;;;10.75;1.73;;;10.00;99.90;;;;;;5347311;26;20471;-68
2024/04/20 09:46:17;;;;;;;6.07;1.48;;;9.90;99.90;;;;;;5395835;26;19995;-68
2024/04/20 09:48:43;;;;;;;6.35;1.65;;;9.80;99.90;;;;;;5400858;26;20007;-67
2024/04/20 09:51:15;;;;;;;7.43;1.50;;;9.60;99.90;;;;;;5378966;26;20008;-68
2024/04/20 09:53:42;;;;;;;11.00;1.83;;;9.60;99.90;;;;;;5378560;26;20101;-69
2024/04/20 09:56:09;;;;;;;3.95;1.30;;;9.50;99.90;;;;;;5369505;26;20036;-68
2024/04/20 09:58:37;;;;;;;7.50;1.48;;;9.50;99.90;;;;;;5373256;26;20104;-70
2024/04/20 10:01:06;;;;;;;12.18;1.88;;;9.50;99.90;;;;;;5385050;26;20008;-69
2024/04/20 10:03:33;;;;;;;4.50;1.48;;;9.90;99.90;;;;;;5381176;26;20018;-68
2024/04/20 10:06:00;;;;;;;8.35;2.00;;;10.50;99.90;;;;;;5385239;26;20440;-68
2024/04/20 10:08:27;;;;;;;9.80;1.67;;;10.70;99.90;;;;;;5399933;26;20004;-67
2024/04/20 10:10:54;;;;;;;10.25;1.98;;;11.00;99.90;;;;;;5384072;26;20375;-69
2024/04/20 10:13:22;;;;;;;9.10;1.83;;;10.90;99.90;;;;;;5375626;26;20048;-70
2024/04/20 10:15:49;;;;;;;6.70;1.63;;;10.80;99.90;;;;;;5393883;26;20008;-71
2024/04/20 10:18:16;;;;;;;6.07;1.80;;;10.60;99.90;;;;;;5378300;26;20042;-69
2024/04/20 10:20:43;;;;;;;14.57;2.30;;;10.60;99.90;;;;;;5390243;26;20141;-69
2024/04/20 10:23:15;;;;;;;8.73;2.28;;;10.70;99.90;;;;;;5362153;26;20001;-69
2024/04/20 10:25:45;;;;;;;8.43;2.10;;;10.70;99.90;;;;;;5384198;26;20014;-68
2024/04/20 10:28:26;;;;;;;5.50;1.80;;;10.70;99.90;;;;;;5372887;26;20016;-68
2024/04/20 10:30:56;;;;;;;9.20;2.03;;;10.70;99.90;;;;;;5387793;26;20004;-69
2024/04/20 10:33:30;;;;;;;11.00;2.72;;;10.80;99.90;;;;;;5382494;26;20004;-69
2024/04/20 10:35:58;;;;;;;7.05;2.13;;;10.90;99.90;;;;;;5388957;26;20043;-70
2024/04/20 10:38:28;;;;;;;12.43;1.88;;;11.00;99.90;;;;;;5398371;26;20039;-69
2024/04/20 10:40:54;;;;;;;8.25;1.98;;;10.80;99.90;;;;;;5393294;26;20080;-73
2024/04/20 10:43:23;;;;;;;9.90;1.60;;;10.70;99.90;;;;;;5380063;26;20076;-70
2024/04/20 10:46:19;;;;;;;7.35;1.80;;;10.60;99.90;;;;;;5392558;26;20059;-69
2024/04/20 10:48:55;;;;;;;8.93;1.98;;;10.60;99.90;;;;;;5368835;26;20077;-69
2024/04/20 10:51:26;;;;;;;13.32;2.15;;;10.70;99.90;;;;;;5384574;26;20004;-69
2024/04/20 10:54:00;;;;;;;12.07;1.73;;;10.90;99.90;;;;;;5389997;26;20081;-70
2024/04/20 10:56:30;;;;;;;10.93;2.97;;;10.90;99.90;;;;;;5379720;26;20031;-69
2024/04/20 10:58:57;;;;;;;16.52;2.08;;;11.00;99.90;;;;;;5380679;26;20325;-71
2024/04/20 11:01:24;;;;;;;9.85;3.22;;;11.10;99.90;;;;;;5359696;26;20000;-71
2024/04/20 11:03:55;;;;;;;8.18;2.35;;;11.00;99.90;;;;;;5386522;26;20086;-70
2024/04/20 11:06:22;;;;;;;7.80;1.50;;;11.20;99.90;;;;;;5379587;26;20000;-69
2024/04/20 11:08:49;;;;;;;8.27;1.90;;;11.00;99.90;;;;;;5383633;26;20005;-69
2024/04/20 11:11:16;;;;;;;6.05;1.40;;;11.00;99.90;;;;;;5377883;26;20042;-70
2024/04/20 11:13:43;;;;;;;16.13;2.33;;;11.00;99.90;;;;;;5380053;26;20030;-67
2024/04/20 11:16:10;;;;;;;14.07;2.80;;;11.10;99.90;;;;;;5374883;26;19995;-69
2024/04/20 11:18:40;;;;;;;9.32;1.75;;;11.00;99.90;;;;;;5392781;26;20008;-69
2024/04/20 11:21:15;;;;;;;8.32;1.95;;;11.00;99.90;;;;;;5391488;26;19996;-67
2024/04/20 11:23:42;;;;;;;5.78;1.58;;;10.90;99.90;;;;;;5379337;26;20008;-69
2024/04/20 11:26:10;;;;;;;10.40;2.38;;;11.00;99.90;;;;;;5383608;26;20004;-69
2024/04/20 11:28:37;;;;;;;5.55;1.58;;;11.20;99.90;;;;;;5373755;26;20015;-69
2024/04/20 11:31:06;;;;;;;8.27;1.73;;;11.30;99.90;;;;;;5388462;26;20008;-67
2024/04/20 11:33:34;;;;;;;4.32;1.33;;;11.20;99.90;;;;;;5381130;26;20016;-68
2024/04/20 11:36:04;;;;;;;10.32;1.88;;;11.20;99.90;;;;;;5376637;26;20003;-69
2024/04/20 11:38:31;;;;;;;7.65;2.13;;;11.30;99.90;;;;;;5385834;26;20086;-67
2024/04/20 11:40:59;;;;;;;9.43;1.25;;;11.40;99.90;;;;;;5399484;26;20458;-68
2024/04/20 11:43:26;;;;;;;13.68;2.05;;;11.20;99.90;;;;;;5383218;26;19999;-68
2024/04/20 11:45:54;;;;;;;10.27;1.40;;;11.20;99.90;;;;;;5378782;26;20000;-69
2024/04/20 11:48:35;;;;;;;9.70;1.80;;;11.20;99.90;;;;;;5378539;26;20000;-69
2024/04/20 11:51:15;;;;;;;4.75;1.27;;;11.30;99.90;;;;;;5377349;26;20419;-70
2024/04/20 11:56:28;;;;;;;5.45;1.02;;;11.50;99.90;;;;;;5385956;26;19999;-68
2024/04/20 11:58:57;;;;;;;2.45;0.77;;;11.50;99.90;;;;;;5389760;26;20004;-69
2024/04/20 12:01:24;;;;;;;10.80;2.00;;;11.50;99.90;;;;;;5399801;26;19999;-69
2024/04/20 12:03:53;;;;;;;11.20;2.15;;;11.30;99.90;;;;;;5397714;26;20137;-69
2024/04/20 12:06:22;;;;;;;5.40;0.98;;;11.40;99.90;;;;;;5372400;26;20267;-69
2024/04/20 12:08:49;;;;;;;9.15;2.05;;;11.30;99.90;;;;;;5390992;26;20004;-68
2024/04/20 12:11:16;;;;;;;6.22;1.30;;;11.30;99.90;;;;;;5384956;26;19995;-67
2024/04/20 12:13:45;;;;;;;3.60;1.33;;;11.40;99.90;;;;;;5384697;26;20015;-69
2024/04/20 12:16:12;;;;;;;6.90;1.77;;;11.30;99.90;;;;;;5382165;26;20014;-67
2024/04/20 12:18:39;;;;;;;7.47;1.85;;;11.20;99.90;;;;;;5388365;26;20847;-68
2024/04/20 12:21:13;;;;;;;10.63;2.72;;;11.30;99.90;;;;;;5389450;26;20000;-69
2024/04/20 12:23:40;;;;;;;6.88;1.60;;;11.50;99.90;;;;;;5375151;26;20021;-69
2024/04/20 12:26:08;;;;;;;10.70;1.67;;;11.50;99.90;;;;;;5012010;26;10000151;-69
2024/04/20 12:28:36;;;;;;;5.50;1.50;;;11.60;99.90;;;;;;5380010;26;20048;-69
2024/04/20 12:31:06;;;;;;;5.90;1.48;;;11.70;99.90;;;;;;5385635;26;20569;-69
2024/04/20 12:33:33;;;;;;;9.57;1.70;;;11.80;99.90;;;;;;5378307;26;20350;-69
2024/04/20 12:36:00;;;;;;;5.07;1.60;;;11.90;99.90;;;;;;5373660;26;20004;-69
2024/04/20 12:38:27;;;;;;;11.20;1.50;;;12.00;99.90;;;;;;5390314;26;20015;-69
2024/04/20 12:40:55;;;;;;;7.63;2.72;;;12.20;99.90;;;;;;5390359;26;20018;-69
2024/04/20 12:43:22;;;;;;;12.38;2.17;;;12.30;99.90;;;;;;5380437;26;20000;-69
2024/04/20 12:45:48;;;;;;;4.57;1.30;;;12.30;99.90;;;;;;5381647;26;20282;-67
2024/04/20 12:48:15;;;;;;;8.18;1.52;;;12.20;99.90;;;;;;5374810;26;20001;-67
2024/04/20 12:50:43;;;;;;;7.57;1.48;;;12.10;99.90;;;;;;5389875;26;20074;-68
2024/04/20 12:53:10;;;;;;;8.13;1.63;;;12.10;99.90;;;;;;5380425;26;20159;-68